SKUC/AUC METAR and TAF weather

Enter ICAO airport designator
Station Type Date Time Source
SKUC METAR 2021/08/27 03:00 UTC NOAA

SKUC 270300Z 00000KT 9999 SCT015 SCT070 26/25 Q1010 RMK A2984


Station Type Date Time Source
SKUC Decoded METAR 2021/08/27 03:00 UTC NOAA

Arauca / Santiago Perez, Colombia (SKUC) 07-04N 070-44W 128M
Aug 26, 2021 - 11:00 PM EDT / 2021.08.27 0300 UTC
Wind: Calm:0
Visibility: greater than 7 mile(s):0
Sky conditions: partly cloudy
Temperature: 78 F (26 C)
Dew Point: 77 F (25 C)
Relative Humidity: 94%
Pressure (altimeter): 29.83 in. Hg (1010 hPa)
ob: SKUC 270300Z 00000KT 9999 SCT015 SCT070 26/25 Q1010 RMK A2984
cycle: 3

Station Type Date Time Source
SKUC TAF UTC NOAA

Error!

Example: see airport list